Accueil
METAR-TAF:

METAR-TAF

Aéroports :

Laupheim, Allemagne

latitude: 48-13N, longitude: 009-55E, altitude: 538 m

Observation

Le bulletin a été fait il y a 43 minutes, à 22:20 UTC
Vent 6 kt de sud-ouest
Température 19°C
Humidité 68%
Pression 1020 hPa
Visibilité 10 km ou plus
Quelques nuages à une hauteur de 7000 ft
Nuages fragmentés à une hauteur de 10000 ft

METAR: ETHL 172220Z 23006KT 9999 FEW070 BKN100 19/13 Q1020 BLACKBLU

Heure: 01:03 (23:03 UTC)

Prévision

Le bulletin a été fait il y a 13 heures et 59 minutes, à 09:04 UTC
Prévision valable du 17 à 08 UTC au 17 à 17 UTC
Vent 7 kt de ouest/sud-ouest
Visibilité: 1000 m
Quelques nuages à une hauteur de 5000 ft
Nuages épars à une hauteur de 30000 ft

TAF: ETHL 170904Z 1708/1717 25007KT 9999 NSW FEW050 SCT300 CANCEL 1000

Observations et prévisions météorologiques de plus de 4000 aéroports (messages METAR et TAF).

Les stations disponibles sont représentées par des disques jaunes et rouges sur la carte.

Passer la souris dessus pour voir le nom de la station.

Cliquer dessus pour voir les observations et prévisions météorologiques.

Pour changer de carte: cliquez sur les boutons verts avec une croix noire pour zoomer, sur le bouton vert avec un tiret pour effectuer un zoom arrière, ou sur les flèches vertes pour les cartes adjacentes.


METAR-TAF: